createdAt,value
2017-09-04T00:00:26.310Z,76.47
2017-09-04T00:02:53.886Z,76.54
2017-09-04T00:05:21.283Z,76.27
2017-09-04T00:07:48.682Z,76.17
2017-09-04T00:10:16.088Z,76.28
2017-09-04T00:12:43.474Z,76.62
2017-09-04T00:15:11.034Z,76.28
2017-09-04T00:17:38.442Z,76.23
2017-09-04T00:20:05.886Z,76.36
2017-09-04T00:22:33.294Z,76.60
2017-09-04T00:25:00.690Z,76.60
2017-09-04T00:27:28.223Z,76.76
2017-09-04T00:29:55.615Z,76.50
2017-09-04T00:32:23.010Z,76.70
2017-09-04T00:34:50.430Z,76.68
2017-09-04T00:37:17.831Z,76.79
2017-09-04T00:39:45.386Z,77.18
2017-09-04T00:42:12.787Z,77.07
2017-09-04T00:44:40.210Z,77.18
2017-09-04T00:47:07.619Z,77.02
2017-09-04T00:49:35.166Z,76.87
2017-09-04T00:52:02.730Z,76.60
2017-09-04T00:54:30.145Z,76.50
2017-09-04T00:56:57.546Z,76.87
2017-09-04T00:59:24.941Z,76.65
2017-09-04T01:01:52.411Z,77.30
2017-09-04T01:04:20.184Z,77.70
2017-09-04T01:06:47.587Z,77.62
2017-09-04T01:09:15.015Z,77.72
2017-09-04T01:11:42.419Z,78.16
2017-09-04T01:14:09.815Z,78.36
2017-09-04T01:16:37.314Z,78.53
2017-09-04T01:19:04.718Z,78.38
2017-09-04T01:21:32.120Z,78.14
2017-09-04T01:23:59.534Z,78.09
2017-09-04T01:26:26.943Z,78.04
2017-09-04T01:28:54.450Z,78.30
2017-09-04T01:31:21.846Z,77.90
2017-09-04T01:33:49.243Z,78.12
2017-09-04T01:36:16.646Z,77.77
2017-09-04T01:38:44.054Z,78.15
2017-09-04T01:41:11.462Z,77.82
2017-09-04T01:43:38.866Z,78.49
2017-09-04T01:46:06.266Z,78.21
2017-09-04T01:48:33.663Z,78.59
2017-09-04T01:51:01.060Z,78.21
2017-09-04T01:53:28.470Z,78.32
2017-09-04T01:55:55.879Z,78.47
2017-09-04T01:58:23.259Z,78.56
2017-09-04T02:00:50.678Z,78.68
2017-09-04T02:03:18.078Z,78.86
2017-09-04T02:05:45.815Z,78.68
2017-09-04T02:08:13.202Z,78.98
2017-09-04T02:10:40.604Z,78.44
2017-09-04T02:13:08.003Z,78.88
2017-09-04T02:15:35.439Z,79.03
2017-09-04T02:18:02.966Z,78.58
2017-09-04T02:20:30.384Z,79.00
2017-09-04T02:22:57.778Z,78.85
2017-09-04T02:25:25.182Z,79.16
2017-09-04T02:27:52.575Z,79.41
2017-09-04T02:30:20.106Z,79.63
2017-09-04T02:32:47.535Z,79.76
2017-09-04T02:35:14.936Z,79.39
2017-09-04T02:37:42.368Z,79.71
2017-09-04T02:40:09.778Z,79.75
2017-09-04T02:42:37.337Z,79.84
2017-09-04T02:45:04.734Z,79.99
2017-09-04T02:47:32.123Z,79.93
2017-09-04T02:49:59.544Z,79.89
2017-09-04T02:52:26.972Z,79.90
2017-09-04T02:54:54.504Z,79.89
2017-09-04T02:57:21.890Z,79.82
2017-09-04T02:59:49.282Z,80.03
2017-09-04T03:02:16.686Z,80.26
2017-09-04T03:04:44.094Z,80.68
2017-09-04T03:07:11.654Z,79.77
2017-09-04T03:09:39.042Z,79.70
2017-09-04T03:12:06.438Z,79.77
2017-09-04T03:14:33.863Z,80.15
2017-09-04T03:17:01.271Z,79.57
2017-09-04T03:19:28.818Z,79.93
2017-09-04T03:21:56.282Z,79.80
2017-09-04T03:24:23.687Z,79.86
2017-09-04T03:26:51.087Z,80.22
2017-09-04T03:29:18.987Z,80.69
2017-09-04T03:31:46.482Z,80.71
2017-09-04T03:34:13.875Z,80.82
2017-09-04T03:36:41.271Z,80.96
2017-09-04T03:39:08.679Z,80.62
2017-09-04T03:41:36.078Z,80.70
2017-09-04T03:44:03.650Z,80.89
2017-09-04T03:46:31.048Z,81.04
2017-09-04T03:48:58.442Z,80.87
2017-09-04T03:51:25.846Z,80.94
2017-09-04T03:53:53.243Z,81.29
2017-09-04T03:56:20.804Z,81.47
2017-09-04T03:58:48.210Z,81.47
2017-09-04T04:01:15.604Z,81.59
2017-09-04T04:03:43.015Z,81.82
2017-09-04T04:06:10.409Z,81.85
2017-09-04T04:08:37.860Z,81.83
2017-09-04T04:11:05.302Z,81.95
2017-09-04T04:13:32.701Z,82.18
2017-09-04T04:16:00.099Z,82.21
2017-09-04T04:18:27.489Z,82.27
2017-09-04T04:20:55.051Z,82.43
2017-09-04T04:23:22.462Z,82.48
2017-09-04T04:25:49.879Z,82.56
2017-09-04T04:28:17.274Z,82.55
2017-09-04T04:30:44.676Z,82.49
2017-09-04T04:33:12.086Z,82.54
2017-09-04T04:35:39.508Z,82.65
2017-09-04T04:38:06.902Z,82.74
2017-09-04T04:40:34.304Z,82.91
2017-09-04T04:43:01.706Z,83.10
2017-09-04T04:45:29.102Z,83.13
2017-09-04T04:47:56.502Z,82.89
2017-09-04T04:50:23.910Z,82.75
2017-09-04T04:52:51.302Z,82.68
2017-09-04T04:55:18.702Z,82.75
2017-09-04T04:57:46.126Z,82.53
2017-09-04T05:00:13.523Z,82.21
2017-09-04T05:02:41.105Z,82.63
2017-09-04T05:05:08.491Z,82.47
2017-09-04T05:07:35.902Z,81.80
2017-09-04T05:10:03.313Z,81.67
2017-09-04T05:12:30.706Z,81.89
2017-09-04T05:14:58.285Z,81.94
2017-09-04T05:17:25.690Z,82.01
2017-09-04T05:19:53.091Z,81.41
2017-09-04T05:22:20.497Z,81.58
2017-09-04T05:24:47.894Z,81.16
2017-09-04T05:27:15.344Z,81.10
2017-09-04T05:29:42.735Z,81.03
2017-09-04T05:32:10.131Z,81.19
2017-09-04T05:34:37.543Z,81.14
2017-09-04T05:37:04.945Z,80.70
2017-09-04T05:39:32.446Z,80.45
2017-09-04T05:41:59.843Z,80.59
2017-09-04T05:44:27.238Z,80.63
2017-09-04T05:46:54.754Z,80.51
2017-09-04T05:49:22.146Z,80.75
2017-09-04T05:51:49.831Z,80.31
2017-09-04T05:54:17.222Z,79.28
2017-09-04T05:56:44.620Z,79.26
2017-09-04T05:59:12.032Z,79.59
2017-09-04T06:01:39.431Z,79.74
2017-09-04T06:04:06.877Z,79.02
2017-09-04T06:06:34.277Z,78.77
2017-09-04T06:09:01.680Z,78.40
2017-09-04T06:11:29.090Z,78.34
2017-09-04T06:13:56.495Z,77.13
2017-09-04T06:16:23.894Z,78.10
2017-09-04T06:18:51.299Z,77.05
2017-09-04T06:21:18.703Z,77.10
2017-09-04T06:23:46.106Z,76.94
2017-09-04T06:26:13.522Z,77.15
2017-09-04T06:28:40.922Z,77.33
2017-09-04T06:31:08.330Z,77.39
2017-09-04T06:33:35.739Z,77.71
2017-09-04T06:36:03.130Z,78.25
2017-09-04T06:38:30.546Z,78.00
2017-09-04T06:40:57.947Z,77.74
2017-09-04T06:43:25.388Z,78.18
2017-09-04T06:45:52.783Z,78.34
2017-09-04T06:48:20.180Z,78.57
2017-09-04T06:50:47.581Z,78.83
2017-09-04T06:53:14.971Z,78.30
2017-09-04T06:55:42.493Z,78.03
2017-09-04T06:58:09.895Z,78.14
2017-09-04T07:00:37.291Z,78.31
2017-09-04T07:03:04.692Z,77.81
2017-09-04T07:05:32.086Z,77.04
2017-09-04T07:07:59.498Z,76.36
2017-09-04T07:10:26.895Z,75.53
2017-09-04T07:12:54.295Z,74.77
2017-09-04T07:15:21.696Z,74.87
2017-09-04T07:17:49.091Z,74.13
2017-09-04T07:20:16.698Z,74.86
2017-09-04T07:22:44.100Z,74.97
2017-09-04T07:25:11.486Z,75.14
2017-09-04T07:27:38.886Z,74.30
2017-09-04T07:30:06.282Z,74.52
2017-09-04T07:32:33.724Z,75.00
2017-09-04T07:35:01.125Z,74.54
2017-09-04T07:37:28.518Z,75.45
2017-09-04T07:39:55.923Z,74.50
2017-09-04T07:42:23.319Z,73.66
2017-09-04T07:44:50.843Z,72.30
2017-09-04T07:47:18.238Z,72.52
2017-09-04T07:49:45.634Z,72.94
2017-09-04T07:52:13.038Z,73.46
2017-09-04T07:54:40.434Z,71.58
2017-09-04T07:57:07.855Z,72.05
2017-09-04T07:59:35.294Z,73.64
2017-09-04T08:02:02.695Z,71.43
2017-09-04T08:04:30.096Z,72.90
2017-09-04T08:06:57.491Z,71.16
2017-09-04T08:09:25.047Z,71.10
2017-09-04T08:11:52.438Z,70.51
2017-09-04T08:14:19.858Z,71.86
2017-09-04T08:16:47.313Z,72.77
2017-09-04T08:19:14.694Z,70.95
2017-09-04T08:21:42.247Z,68.59
2017-09-04T08:24:09.650Z,67.85
2017-09-04T08:26:37.050Z,69.30
2017-09-04T08:29:04.459Z,67.83
2017-09-04T08:31:31.855Z,68.12
2017-09-04T08:33:59.407Z,67.54
2017-09-04T08:36:26.803Z,67.67
2017-09-04T08:38:54.195Z,65.58
2017-09-04T08:41:21.594Z,65.12
2017-09-04T08:43:48.990Z,66.35
2017-09-04T08:46:16.498Z,67.32
2017-09-04T08:48:43.890Z,65.27
2017-09-04T08:51:11.299Z,63.79
2017-09-04T08:53:38.703Z,63.36
2017-09-04T08:56:06.102Z,62.28
2017-09-04T08:58:33.770Z,61.84
2017-09-04T09:01:01.168Z,61.03
2017-09-04T09:03:28.568Z,61.86
2017-09-04T09:05:55.970Z,61.74
2017-09-04T09:08:23.379Z,61.24
2017-09-04T09:10:50.810Z,58.80
2017-09-04T09:13:18.212Z,59.98
2017-09-04T09:15:46.219Z,59.07
2017-09-04T09:18:13.607Z,59.07
2017-09-04T09:20:41.000Z,55.94
2017-09-04T09:23:08.507Z,58.99
2017-09-04T09:25:35.918Z,58.44
2017-09-04T09:28:03.307Z,58.56
2017-09-04T09:30:30.707Z,58.07
2017-09-04T09:32:58.106Z,53.59
2017-09-04T09:35:25.607Z,54.85
2017-09-04T09:37:52.998Z,53.21
2017-09-04T09:40:20.394Z,50.27
2017-09-04T09:42:47.808Z,48.20
2017-09-04T09:45:15.202Z,48.69
2017-09-04T09:47:42.706Z,51.64
2017-09-04T09:50:10.107Z,50.07
2017-09-04T09:52:37.499Z,50.15
2017-09-04T09:55:04.898Z,48.52
2017-09-04T09:57:32.304Z,48.33
2017-09-04T09:59:59.723Z,48.47
2017-09-04T10:02:27.126Z,48.34
2017-09-04T10:04:54.522Z,46.62
2017-09-04T10:07:21.922Z,49.86
2017-09-04T10:09:49.319Z,50.21
2017-09-04T10:12:16.879Z,46.77
2017-09-04T10:14:44.279Z,49.12
2017-09-04T10:17:11.678Z,48.30
2017-09-04T10:19:39.080Z,49.62
2017-09-04T10:22:06.477Z,47.45
2017-09-04T10:24:33.894Z,45.06
2017-09-04T10:27:01.287Z,42.54
2017-09-04T10:29:28.682Z,41.39
2017-09-04T10:31:56.087Z,44.77
2017-09-04T10:34:23.482Z,42.95
2017-09-04T10:36:51.011Z,40.22
2017-09-04T10:39:18.407Z,41.70
2017-09-04T10:41:45.811Z,40.29
2017-09-04T10:44:13.206Z,43.50
2017-09-04T10:46:40.598Z,39.70
2017-09-04T10:49:08.123Z,42.74
2017-09-04T10:51:35.530Z,42.44
2017-09-04T10:54:02.931Z,36.82
2017-09-04T10:56:30.330Z,39.64
2017-09-04T10:58:57.723Z,39.80
2017-09-04T11:01:25.162Z,36.78
2017-09-04T11:03:52.560Z,37.06
2017-09-04T11:06:19.954Z,37.37
2017-09-04T11:08:47.366Z,38.50
2017-09-04T11:11:14.763Z,39.06
2017-09-04T11:13:42.272Z,38.51
2017-09-04T11:16:09.671Z,38.08
2017-09-04T11:18:37.069Z,37.79
2017-09-04T11:21:04.462Z,36.66
2017-09-04T11:23:31.862Z,37.20
2017-09-04T11:25:59.391Z,36.45
2017-09-04T11:28:26.795Z,36.38
2017-09-04T11:30:54.196Z,37.53
2017-09-04T11:33:21.605Z,37.94
2017-09-04T11:35:49.006Z,39.00
2017-09-04T11:38:16.447Z,36.47
2017-09-04T11:40:43.844Z,37.62
2017-09-04T11:43:11.240Z,38.29
2017-09-04T11:45:38.656Z,36.85
2017-09-04T11:48:06.046Z,38.56
2017-09-04T11:50:33.474Z,36.64
2017-09-04T11:53:00.871Z,35.39
2017-09-04T11:55:38.740Z,36.81
2017-09-04T11:58:06.135Z,37.43
2017-09-04T12:00:42.814Z,40.84
2017-09-04T12:03:10.283Z,44.85
2017-09-04T12:05:39.778Z,44.27
2017-09-04T12:08:07.199Z,45.63
2017-09-04T12:10:34.594Z,43.40
2017-09-04T12:13:02.000Z,43.03
2017-09-04T12:15:29.402Z,40.27
2017-09-04T12:17:56.799Z,40.44
2017-09-04T12:20:24.203Z,37.73
2017-09-04T12:22:51.610Z,37.26
2017-09-04T12:25:19.002Z,38.97
2017-09-04T12:27:46.450Z,39.55
2017-09-04T12:30:13.842Z,37.48
2017-09-04T12:32:41.251Z,37.88
2017-09-04T12:35:08.658Z,36.23
2017-09-04T12:37:36.060Z,38.67
2017-09-04T12:40:03.614Z,41.53
2017-09-04T12:42:31.007Z,41.13
2017-09-04T12:44:58.417Z,40.84
2017-09-04T12:47:25.815Z,40.17
2017-09-04T12:49:53.214Z,35.08
2017-09-04T12:52:20.719Z,35.85
2017-09-04T12:54:48.164Z,38.88
2017-09-04T12:57:15.584Z,39.87
2017-09-04T12:59:43.000Z,41.08
2017-09-04T13:02:10.400Z,38.72
2017-09-04T13:04:37.802Z,41.13
2017-09-04T13:07:05.208Z,45.12
2017-09-04T13:09:32.619Z,40.74
2017-09-04T13:15:13.675Z,38.77
2017-09-04T13:20:46.442Z,39.41
2017-09-04T13:23:22.310Z,40.06
2017-09-04T13:26:00.146Z,42.73
2017-09-04T13:28:33.062Z,40.56
2017-09-04T13:31:06.114Z,38.84
2017-09-04T13:33:39.076Z,37.91
2017-09-04T13:36:11.959Z,38.02
2017-09-04T13:41:58.971Z,37.81
2017-09-04T13:44:31.148Z,37.73
2017-09-04T13:47:14.196Z,37.61
2017-09-04T13:49:41.597Z,40.10
2017-09-04T13:52:14.503Z,42.25
2017-09-04T13:54:47.486Z,42.43
2017-09-04T14:00:23.018Z,39.88
2017-09-04T14:06:01.343Z,38.98
2017-09-04T14:08:34.420Z,39.69
2017-09-04T14:11:07.455Z,38.41
2017-09-04T14:13:40.455Z,41.15
2017-09-04T14:16:23.530Z,41.15
2017-09-04T14:18:50.934Z,39.16
2017-09-04T14:21:18.336Z,40.36
2017-09-04T14:23:45.864Z,40.09
2017-09-04T14:26:13.271Z,40.83
2017-09-04T14:28:40.703Z,43.09
2017-09-04T14:31:08.125Z,42.35
2017-09-04T14:33:35.550Z,46.55
2017-09-04T14:36:03.098Z,44.64
2017-09-04T14:38:30.500Z,44.96
2017-09-04T14:41:07.820Z,47.14
2017-09-04T14:46:38.802Z,42.90
2017-09-04T14:49:06.186Z,44.71
2017-09-04T14:51:33.582Z,42.75
2017-09-04T14:54:00.986Z,45.41
2017-09-04T14:56:28.396Z,45.65
2017-09-04T14:58:55.952Z,44.50
2017-09-04T15:01:23.363Z,44.51
2017-09-04T15:03:50.754Z,45.69
2017-09-04T15:06:18.158Z,45.62
2017-09-04T15:08:45.547Z,45.91
2017-09-04T15:11:13.227Z,46.84
2017-09-04T15:13:40.622Z,47.42
2017-09-04T15:16:08.040Z,46.09
2017-09-04T15:18:35.465Z,44.63
2017-09-04T15:21:02.859Z,43.88
2017-09-04T15:23:30.322Z,45.04
2017-09-04T15:25:57.718Z,45.06
2017-09-04T15:28:25.110Z,47.35
2017-09-04T15:30:52.506Z,46.02
2017-09-04T15:33:19.906Z,46.95
2017-09-04T15:35:47.311Z,49.65
2017-09-04T15:38:14.707Z,48.69
2017-09-04T15:40:42.112Z,49.51
2017-09-04T15:43:09.510Z,51.07
2017-09-04T15:45:36.910Z,49.34
2017-09-04T15:48:04.310Z,49.92
2017-09-04T15:50:31.702Z,50.24
2017-09-04T15:52:59.107Z,49.29
2017-09-04T15:55:26.509Z,50.22
2017-09-04T15:57:54.094Z,50.46
2017-09-04T16:00:21.504Z,50.52
2017-09-04T16:02:48.902Z,50.91
2017-09-04T16:05:16.322Z,51.03
2017-09-04T16:07:45.210Z,52.47
2017-09-04T16:10:12.764Z,50.77
2017-09-04T16:12:40.159Z,49.93
2017-09-04T16:15:17.616Z,50.43
2017-09-04T16:18:00.790Z,50.42
2017-09-04T16:20:30.683Z,51.32
2017-09-04T16:22:58.560Z,51.35
2017-09-04T16:25:42.644Z,51.23
2017-09-04T16:28:24.767Z,52.27
2017-09-04T16:30:56.528Z,51.32
2017-09-04T16:33:24.571Z,51.71
2017-09-04T16:38:54.606Z,52.06
2017-09-04T16:41:22.986Z,52.26
2017-09-04T16:43:56.918Z,52.36
2017-09-04T16:46:25.120Z,52.30
2017-09-04T16:49:07.386Z,53.13
2017-09-04T16:51:38.894Z,53.15
2017-09-04T16:54:06.313Z,54.66
2017-09-04T16:56:47.635Z,54.31
2017-09-04T16:59:15.035Z,53.27
2017-09-04T17:01:42.439Z,53.30
2017-09-04T17:04:09.855Z,54.29
2017-09-04T17:06:43.495Z,56.01
2017-09-04T17:09:11.574Z,54.44
2017-09-04T17:11:40.338Z,53.89
2017-09-04T17:14:07.847Z,54.61
2017-09-04T17:16:35.247Z,54.49
2017-09-04T17:19:07.200Z,54.48
2017-09-04T17:21:35.583Z,54.79
2017-09-04T17:27:04.836Z,55.00
2017-09-04T17:29:32.370Z,55.19
2017-09-04T17:31:59.772Z,55.77
2017-09-04T17:34:27.171Z,55.92
2017-09-04T17:36:54.570Z,55.85
2017-09-04T17:39:21.972Z,57.40
2017-09-04T17:41:49.494Z,56.93
2017-09-04T17:44:16.917Z,56.97
2017-09-04T17:46:44.311Z,57.30
2017-09-04T17:49:11.730Z,58.42
2017-09-04T17:51:39.131Z,57.39
2017-09-04T17:54:06.686Z,58.28
2017-09-04T17:56:34.087Z,60.13
2017-09-04T17:59:01.482Z,59.89
2017-09-04T18:01:28.893Z,59.41
2017-09-04T18:03:56.288Z,58.57
2017-09-04T18:06:23.691Z,58.83
2017-09-04T18:08:51.173Z,58.36
2017-09-04T18:11:18.602Z,58.72
2017-09-04T18:13:46.066Z,57.95
2017-09-04T18:16:13.463Z,60.15
2017-09-04T18:18:40.882Z,60.45
2017-09-04T18:21:09.144Z,59.50
2017-09-04T18:23:36.810Z,59.89
2017-09-04T18:26:05.296Z,59.20
2017-09-04T18:28:32.691Z,59.23
2017-09-04T18:31:00.123Z,59.73
2017-09-04T18:33:27.541Z,60.44
2017-09-04T18:35:55.079Z,60.44
2017-09-04T18:38:22.491Z,60.65
2017-09-04T18:40:49.893Z,60.74
2017-09-04T18:43:17.295Z,60.65
2017-09-04T18:45:44.694Z,60.86
2017-09-04T18:48:12.102Z,61.32
2017-09-04T18:50:39.490Z,61.29
2017-09-04T18:53:07.215Z,61.48
2017-09-04T18:55:34.615Z,61.14
2017-09-04T18:58:02.038Z,61.81
2017-09-04T19:00:29.459Z,62.12
2017-09-04T19:02:56.854Z,62.23
2017-09-04T19:05:24.255Z,62.57
2017-09-04T19:07:51.660Z,62.69
2017-09-04T19:10:19.167Z,63.10
2017-09-04T19:12:46.571Z,63.42
2017-09-04T19:15:13.971Z,63.63
2017-09-04T19:17:41.446Z,63.94
2017-09-04T19:20:08.857Z,64.31
2017-09-04T19:22:36.296Z,64.71
2017-09-04T19:25:03.683Z,65.10
2017-09-04T19:27:31.190Z,65.87
2017-09-04T19:29:58.586Z,66.00
2017-09-04T19:32:25.983Z,66.40
2017-09-04T19:34:53.386Z,65.95
2017-09-04T19:37:20.782Z,65.55
2017-09-04T19:39:48.238Z,65.48
2017-09-04T19:42:15.637Z,65.65
2017-09-04T19:44:43.027Z,65.61
2017-09-04T19:47:10.443Z,65.97
2017-09-04T19:49:37.843Z,66.23
2017-09-04T19:52:05.368Z,66.31
2017-09-04T19:54:32.784Z,66.25
2017-09-04T19:57:00.193Z,66.34
2017-09-04T19:59:27.583Z,66.83
2017-09-04T20:01:54.998Z,66.89
2017-09-04T20:04:22.489Z,67.25
2017-09-04T20:06:49.886Z,66.58
2017-09-04T20:09:17.291Z,66.82
2017-09-04T20:11:44.687Z,66.99
2017-09-04T20:14:12.081Z,66.27
2017-09-04T20:16:39.495Z,66.43
2017-09-04T20:19:06.903Z,66.59
2017-09-04T20:21:34.325Z,66.30
2017-09-04T20:24:01.730Z,66.19
2017-09-04T20:26:29.543Z,66.85
2017-09-04T20:28:57.947Z,66.12
2017-09-04T20:31:25.348Z,66.53
2017-09-04T20:33:52.738Z,66.79
2017-09-04T20:36:20.150Z,67.02
2017-09-04T20:38:47.546Z,66.92
2017-09-04T20:41:15.083Z,66.89
2017-09-04T20:43:42.487Z,67.12
2017-09-04T20:46:09.873Z,67.44
2017-09-04T20:48:37.277Z,67.87
2017-09-04T20:51:04.671Z,67.46
2017-09-04T20:53:32.229Z,68.17
2017-09-04T20:55:59.640Z,67.75
2017-09-04T20:58:27.076Z,68.31
2017-09-04T21:00:54.482Z,67.99
2017-09-04T21:03:21.887Z,68.91
2017-09-04T21:05:49.326Z,68.63
2017-09-04T21:08:16.735Z,68.56
2017-09-04T21:10:44.131Z,68.87
2017-09-04T21:13:11.532Z,68.88
2017-09-04T21:15:38.931Z,69.00
2017-09-04T21:18:06.380Z,69.72
2017-09-04T21:20:33.770Z,69.43
2017-09-04T21:23:01.168Z,69.71
2017-09-04T21:25:28.584Z,70.53
2017-09-04T21:27:55.974Z,70.49
2017-09-04T21:30:23.484Z,70.34
2017-09-04T21:32:50.877Z,69.59
2017-09-04T21:35:18.278Z,69.45
2017-09-04T21:37:45.675Z,69.74
2017-09-04T21:40:13.082Z,70.01
2017-09-04T21:42:40.622Z,69.96
2017-09-04T21:45:08.014Z,70.25
2017-09-04T21:47:35.430Z,70.01
2017-09-04T21:50:02.840Z,70.69
2017-09-04T21:52:30.230Z,70.53
2017-09-04T21:54:57.752Z,70.48
2017-09-04T21:57:25.158Z,70.32
2017-09-04T21:59:52.558Z,70.31
2017-09-04T22:02:19.963Z,70.54
2017-09-04T22:04:47.362Z,70.84
2017-09-04T22:07:14.811Z,71.22
2017-09-04T22:09:42.218Z,71.49
2017-09-04T22:12:09.614Z,71.68
2017-09-04T22:14:37.017Z,71.91
2017-09-04T22:17:04.414Z,71.97
2017-09-04T22:19:31.977Z,71.86
2017-09-04T22:21:59.365Z,71.89
2017-09-04T22:24:26.773Z,72.08
2017-09-04T22:26:54.179Z,71.85
2017-09-04T22:29:21.571Z,71.95
2017-09-04T22:31:49.120Z,72.22
2017-09-04T22:34:16.516Z,72.60
2017-09-04T22:36:43.918Z,73.12
2017-09-04T22:39:11.328Z,71.94
2017-09-04T22:41:38.719Z,72.51
2017-09-04T22:44:06.350Z,72.68
2017-09-04T22:46:33.750Z,72.54
2017-09-04T22:49:01.139Z,72.34
2017-09-04T22:51:28.542Z,72.34
2017-09-04T22:53:55.944Z,73.05
2017-09-04T22:56:23.537Z,73.08
2017-09-04T22:58:50.930Z,72.25
2017-09-04T23:01:18.327Z,72.49
2017-09-04T23:03:45.728Z,72.73
2017-09-04T23:06:13.119Z,72.84
2017-09-04T23:08:40.542Z,72.93
2017-09-04T23:11:07.934Z,72.44
2017-09-04T23:13:35.336Z,72.79
2017-09-04T23:16:02.742Z,72.07
2017-09-04T23:18:30.138Z,72.63
2017-09-04T23:20:57.562Z,72.98
2017-09-04T23:23:24.959Z,71.66
2017-09-04T23:25:52.350Z,72.72
2017-09-04T23:28:19.755Z,71.97
2017-09-04T23:30:47.158Z,72.18
2017-09-04T23:33:14.713Z,72.63
2017-09-04T23:35:42.102Z,72.00
2017-09-04T23:38:09.494Z,72.92
2017-09-04T23:40:37.268Z,73.13
2017-09-04T23:43:04.670Z,72.54
2017-09-04T23:45:32.071Z,72.92
2017-09-04T23:47:59.475Z,73.17
2017-09-04T23:50:27.850Z,73.52
2017-09-04T23:52:55.256Z,73.58
2017-09-04T23:55:22.653Z,73.42
2017-09-04T23:57:50.078Z,73.68
